createdAt,value
2023-04-19T00:03:35.224Z,7.86
2023-04-19T00:08:08.486Z,7.71
2023-04-19T00:16:58.912Z,7.55
2023-04-19T00:21:41.860Z,7.83
2023-04-19T00:25:48.739Z,8.17
2023-04-19T00:29:53.825Z,7.77
2023-04-19T00:40:03.260Z,8.15
2023-04-19T00:45:30.284Z,8.32
2023-04-19T00:49:11.365Z,8.11
2023-04-19T01:28:27.651Z,8.41
2023-04-19T01:32:30.364Z,8.46
2023-04-19T01:36:33.060Z,8.46
2023-04-19T01:40:37.088Z,8.39
2023-04-19T01:44:39.753Z,8.48
2023-04-19T01:48:42.387Z,8.43
2023-04-19T01:52:45.057Z,8.54
2023-04-19T01:56:49.207Z,8.47
2023-04-19T02:00:51.882Z,8.65
2023-04-19T02:04:54.602Z,8.47
2023-04-19T02:08:57.316Z,8.45
2023-04-19T02:13:01.362Z,8.45
2023-04-19T02:17:04.162Z,8.58
2023-04-19T02:21:07.768Z,8.48
2023-04-19T02:25:10.751Z,8.40
2023-04-19T02:29:16.866Z,8.51
2023-04-19T02:33:19.540Z,8.63
2023-04-19T02:37:22.188Z,8.57
2023-04-19T02:41:24.902Z,8.61
2023-04-19T02:45:28.984Z,8.46
2023-04-19T02:49:33.147Z,8.60
2023-04-19T02:53:35.867Z,8.80
2023-04-19T02:57:38.524Z,8.58
2023-04-19T03:01:42.697Z,8.41
2023-04-19T03:05:45.354Z,8.37
2023-04-19T03:09:47.988Z,8.29
2023-04-19T03:13:50.600Z,7.90
2023-04-19T03:17:54.692Z,7.53
2023-04-19T03:21:57.679Z,7.35
2023-04-19T03:26:00.376Z,7.34
2023-04-19T03:30:03.306Z,7.39
2023-04-19T03:34:07.364Z,7.08
2023-04-19T03:38:10.004Z,6.93
2023-04-19T03:42:12.650Z,6.73
2023-04-19T03:46:15.538Z,6.63
2023-04-19T03:50:19.902Z,6.75
2023-04-19T03:54:22.610Z,6.21
2023-04-19T03:58:25.254Z,6.20
2023-04-19T04:02:28.083Z,6.20
2023-04-19T04:06:34.413Z,6.16
2023-04-19T04:10:37.078Z,6.25
2023-04-19T04:14:39.669Z,5.88
2023-04-19T04:18:42.349Z,6.04
2023-04-19T04:22:47.306Z,5.89
2023-04-19T04:26:51.511Z,5.95
2023-04-19T04:30:57.287Z,6.09
2023-04-19T04:34:59.899Z,5.63
2023-04-19T04:39:03.951Z,5.41
2023-04-19T04:43:06.562Z,5.46
2023-04-19T04:47:09.189Z,5.66
2023-04-19T04:51:11.846Z,5.77
2023-04-19T04:55:15.883Z,5.91
2023-04-19T04:59:18.713Z,6.07
2023-04-19T05:03:21.447Z,6.25
2023-04-19T05:07:24.179Z,6.18
2023-04-19T05:11:28.270Z,6.50
2023-04-19T05:15:30.807Z,6.55
2023-04-19T05:19:33.443Z,6.68
2023-04-19T05:23:36.074Z,6.79
2023-04-19T05:27:40.120Z,6.99
2023-04-19T05:31:42.596Z,7.16
2023-04-19T05:35:45.368Z,7.31
2023-04-19T05:39:47.981Z,7.70
2023-04-19T05:43:51.980Z,8.30
2023-04-19T05:47:54.528Z,8.17
2023-04-19T05:51:57.177Z,8.42
2023-04-19T05:56:00.174Z,8.59
2023-04-19T06:00:05.811Z,8.85
2023-04-19T06:04:08.601Z,8.82
2023-04-19T06:08:11.601Z,9.04
2023-04-19T06:12:14.532Z,9.09
2023-04-19T06:16:18.746Z,9.11
2023-04-19T06:20:21.551Z,9.23
2023-04-19T06:24:24.509Z,9.28
2023-04-19T06:28:27.151Z,9.37
2023-04-19T06:32:31.567Z,9.37
2023-04-19T06:36:34.314Z,9.33
2023-04-19T06:40:37.107Z,9.33
2023-04-19T06:44:39.778Z,9.41
2023-04-19T06:48:43.810Z,9.54
2023-04-19T06:52:46.576Z,9.58
2023-04-19T06:56:50.850Z,9.75
2023-04-19T07:00:53.537Z,9.71
2023-04-19T07:04:57.718Z,9.89
2023-04-19T07:09:00.577Z,9.85
2023-04-19T07:13:03.402Z,10.00
2023-04-19T07:17:06.717Z,9.98
2023-04-19T07:21:11.073Z,10.03
2023-04-19T07:25:13.813Z,10.20
2023-04-19T07:29:16.706Z,10.30
2023-04-19T07:33:19.785Z,10.31
2023-04-19T07:37:24.478Z,10.33
2023-04-19T07:41:27.391Z,10.39
2023-04-19T07:45:31.645Z,10.45
2023-04-19T07:49:35.434Z,10.56
2023-04-19T07:53:41.811Z,10.70
2023-04-19T07:57:48.085Z,10.80
2023-04-19T08:01:51.090Z,10.94
2023-04-19T08:05:54.716Z,10.79
2023-04-19T08:09:59.190Z,10.93
2023-04-19T08:14:11.969Z,10.87
2023-04-19T08:18:21.506Z,11.32
2023-04-19T08:22:25.730Z,11.43
2023-04-19T08:26:30.123Z,11.54
2023-04-19T08:30:33.772Z,11.77
2023-04-19T08:34:37.615Z,11.78
2023-04-19T08:38:44.556Z,11.80
2023-04-19T08:42:51.037Z,12.00
2023-04-19T08:46:53.844Z,12.03
2023-04-19T08:51:04.945Z,12.11
2023-04-19T08:55:09.865Z,12.20
2023-04-19T08:59:18.696Z,11.96
2023-04-19T09:03:23.356Z,11.58
2023-04-19T09:07:27.730Z,11.41
2023-04-19T09:11:37.766Z,11.48
2023-04-19T09:15:44.784Z,11.75
2023-04-19T09:19:48.333Z,11.99
2023-04-19T09:23:51.308Z,11.93
2023-04-19T09:27:54.300Z,12.18
2023-04-19T09:32:01.287Z,13.76
2023-04-19T09:36:04.583Z,13.22
2023-04-19T09:40:25.255Z,12.32
2023-04-19T09:48:37.166Z,12.26
2023-04-19T09:52:40.057Z,12.20
2023-04-19T09:56:43.347Z,12.20
2023-04-19T10:00:50.142Z,12.14
2023-04-19T10:05:16.344Z,12.24
2023-04-19T10:09:22.105Z,12.59
2023-04-19T10:13:26.868Z,12.55
2023-04-19T10:17:29.977Z,12.70
2023-04-19T10:21:35.078Z,12.70
2023-04-19T10:25:39.044Z,13.05
2023-04-19T10:30:02.693Z,13.01
2023-04-19T10:34:07.462Z,13.58
2023-04-19T10:38:13.245Z,13.71
2023-04-19T10:42:16.165Z,13.87
2023-04-19T10:46:38.716Z,14.10
2023-04-19T10:50:59.777Z,13.62
2023-04-19T10:55:05.923Z,13.38
2023-04-19T10:59:26.614Z,13.25
2023-04-19T11:04:02.857Z,13.26
2023-04-19T11:08:06.366Z,12.89
2023-04-19T11:12:13.292Z,12.96
2023-04-19T11:16:18.348Z,13.24
2023-04-19T11:20:24.985Z,13.21
2023-04-19T11:24:28.429Z,13.31
2023-04-19T11:28:34.605Z,13.74
2023-04-19T11:32:38.304Z,13.44
2023-04-19T11:36:49.242Z,13.45
2023-04-19T11:41:00.020Z,13.39
2023-04-19T11:45:06.134Z,13.78
2023-04-19T11:49:12.241Z,13.91
2023-04-19T11:53:17.254Z,14.07
2023-04-19T11:57:29.706Z,14.03
2023-04-19T12:01:33.936Z,13.93
2023-04-19T12:05:36.968Z,13.74
2023-04-19T12:09:40.423Z,13.51
2023-04-19T12:13:44.622Z,13.38
2023-04-19T12:18:03.104Z,13.05
2023-04-19T12:22:10.022Z,12.96
2023-04-19T12:26:13.301Z,13.26
2023-04-19T12:30:16.398Z,13.71
2023-04-19T12:34:20.943Z,13.52
2023-04-19T12:38:23.751Z,13.91
2023-04-19T12:42:26.839Z,13.68
2023-04-19T12:46:29.859Z,13.76
2023-04-19T12:50:34.157Z,13.95
2023-04-19T12:54:37.461Z,14.13
2023-04-19T12:58:39.998Z,13.59
2023-04-19T13:02:43.089Z,13.61
2023-04-19T13:06:47.248Z,13.89
2023-04-19T13:10:50.381Z,13.94
2023-04-19T13:14:53.595Z,13.76
2023-04-19T13:18:56.546Z,13.65
2023-04-19T13:23:01.013Z,13.85
2023-04-19T13:27:04.486Z,13.63
2023-04-19T13:31:08.528Z,14.06
2023-04-19T13:35:11.386Z,15.27
2023-04-19T13:39:15.989Z,15.23
2023-04-19T13:43:18.900Z,15.00
2023-04-19T13:47:21.881Z,15.23
2023-04-19T13:51:24.651Z,15.55
2023-04-19T13:55:29.046Z,16.47
2023-04-19T13:59:32.113Z,15.90
2023-04-19T14:03:35.357Z,14.96
2023-04-19T14:07:40.246Z,14.52
2023-04-19T14:11:44.656Z,14.16
2023-04-19T14:15:47.735Z,14.47
2023-04-19T14:19:50.916Z,15.01
2023-04-19T14:23:53.704Z,14.88
2023-04-19T14:27:58.690Z,15.03
2023-04-19T14:32:13.529Z,14.79
2023-04-19T14:36:24.899Z,14.97
2023-04-19T14:40:27.647Z,15.08
2023-04-19T14:44:32.156Z,14.59
2023-04-19T14:48:34.958Z,14.70
2023-04-19T14:52:38.217Z,15.05
2023-04-19T14:56:41.260Z,14.87
2023-04-19T15:00:45.657Z,14.90
2023-04-19T15:04:48.814Z,14.59
2023-04-19T15:08:52.052Z,14.79
2023-04-19T15:12:54.900Z,14.87
2023-04-19T15:16:59.791Z,14.52
2023-04-19T15:21:04.113Z,14.43
2023-04-19T15:25:07.450Z,14.00
2023-04-19T15:29:10.034Z,14.38
2023-04-19T15:33:14.508Z,14.85
2023-04-19T15:37:17.422Z,14.98
2023-04-19T15:41:20.204Z,14.53
2023-04-19T15:45:25.371Z,14.89
2023-04-19T15:49:29.473Z,14.68
2023-04-19T15:53:32.282Z,14.55
2023-04-19T15:57:35.161Z,14.57
2023-04-19T16:01:38.892Z,14.20
2023-04-19T16:05:43.356Z,14.28
2023-04-19T16:09:46.908Z,13.96
2023-04-19T16:13:49.901Z,13.72
2023-04-19T16:17:52.922Z,14.06
2023-04-19T16:21:57.546Z,13.77
2023-04-19T16:26:00.949Z,13.62
2023-04-19T16:30:04.040Z,13.86
2023-04-19T16:34:06.743Z,13.87
2023-04-19T16:38:11.042Z,13.94
2023-04-19T16:42:14.164Z,13.47
2023-04-19T16:46:17.041Z,13.22
2023-04-19T16:50:21.061Z,13.08
2023-04-19T16:54:25.254Z,13.15
2023-04-19T16:58:28.294Z,12.97
2023-04-19T17:02:31.627Z,12.62
2023-04-19T17:06:34.604Z,12.27
2023-04-19T17:10:38.872Z,12.23
2023-04-19T17:14:42.072Z,11.68
2023-04-19T17:18:44.969Z,11.63
2023-04-19T17:22:48.061Z,11.43
2023-04-19T17:26:53.059Z,11.61
2023-04-19T17:30:56.137Z,11.66
2023-04-19T17:35:00.449Z,11.04
2023-04-19T17:39:03.587Z,10.94
2023-04-19T17:43:08.694Z,11.16
2023-04-19T17:47:11.569Z,10.61
2023-04-19T17:51:14.328Z,10.16
2023-04-19T17:55:17.325Z,10.67
2023-04-19T17:59:21.733Z,10.61
2023-04-19T18:03:24.717Z,10.68
2023-04-19T18:07:27.696Z,10.75
2023-04-19T18:11:30.701Z,10.13
2023-04-19T18:15:35.141Z,9.59
2023-04-19T18:19:38.691Z,9.27
2023-04-19T18:23:42.061Z,9.25
2023-04-19T18:27:44.948Z,9.01
2023-04-19T18:31:49.194Z,8.99
2023-04-19T18:35:53.239Z,8.51
2023-04-19T18:39:56.047Z,8.25
2023-04-19T18:48:06.290Z,8.05
2023-04-19T18:52:09.429Z,8.07
2023-04-19T18:56:12.584Z,7.81
2023-04-19T19:00:16.127Z,7.91
2023-04-19T19:04:42.788Z,8.00
2023-04-19T19:08:46.224Z,8.12
2023-04-19T19:12:49.165Z,7.46
2023-04-19T19:16:52.913Z,7.88
2023-04-19T19:21:00.735Z,8.18
2023-04-19T19:25:03.540Z,7.70
2023-04-19T19:29:06.761Z,7.73
2023-04-19T19:33:09.630Z,7.70
2023-04-19T19:37:16.909Z,7.98
2023-04-19T19:45:28.464Z,7.69
2023-04-19T19:53:37.982Z,8.02
2023-04-19T20:01:47.738Z,7.47
2023-04-19T20:05:51.976Z,7.30
2023-04-19T20:09:56.544Z,7.25
2023-04-19T20:13:59.256Z,7.35
2023-04-19T20:18:02.385Z,7.17
2023-04-19T20:22:05.748Z,7.31
2023-04-19T20:26:10.199Z,7.33
2023-04-19T20:30:13.921Z,7.39
2023-04-19T20:34:16.761Z,7.44
2023-04-19T20:38:19.585Z,6.75
2023-04-19T20:42:23.937Z,6.62
2023-04-19T20:46:26.630Z,6.33
2023-04-19T20:50:29.734Z,6.09
2023-04-19T20:54:33.537Z,6.08
2023-04-19T20:58:38.400Z,5.93
2023-04-19T21:02:41.134Z,5.91
2023-04-19T21:06:43.910Z,5.73
2023-04-19T21:10:46.590Z,5.61
2023-04-19T21:14:52.332Z,5.57
2023-04-19T21:18:55.429Z,5.41
2023-04-19T21:22:58.156Z,5.33
2023-04-19T21:27:01.465Z,5.36
2023-04-19T21:31:05.834Z,5.38
2023-04-19T21:35:09.243Z,5.14
2023-04-19T21:39:12.121Z,5.62
2023-04-19T21:43:14.827Z,5.43
2023-04-19T21:47:19.279Z,5.42
2023-04-19T21:51:22.055Z,5.56
2023-04-19T21:55:25.050Z,5.26
2023-04-19T21:59:27.813Z,4.94
2023-04-19T22:03:32.120Z,4.87
2023-04-19T22:07:37.416Z,4.70
2023-04-19T22:11:40.287Z,4.48
2023-04-19T22:15:43.496Z,4.28
2023-04-19T22:19:48.525Z,4.31
2023-04-19T22:23:51.371Z,4.03
2023-04-19T22:27:54.557Z,3.87
2023-04-19T22:31:57.478Z,3.75
2023-04-19T22:36:01.790Z,4.02
2023-04-19T22:40:06.943Z,3.58
2023-04-19T22:44:09.691Z,3.64
2023-04-19T22:48:12.468Z,3.64
2023-04-19T22:52:17.596Z,3.29
2023-04-19T22:56:20.187Z,2.79
2023-04-19T23:00:22.935Z,3.03
2023-04-19T23:04:25.707Z,3.08
2023-04-19T23:08:29.962Z,3.22
2023-04-19T23:12:33.588Z,2.49
2023-04-19T23:16:38.439Z,2.48
2023-04-19T23:20:41.629Z,2.69
2023-04-19T23:24:46.200Z,2.70
2023-04-19T23:28:48.856Z,2.80
2023-04-19T23:32:51.672Z,2.34
2023-04-19T23:36:54.641Z,2.60
2023-04-19T23:40:59.434Z,2.16
2023-04-19T23:45:02.150Z,2.10
2023-04-19T23:49:04.916Z,1.84
2023-04-19T23:53:08.008Z,1.77
2023-04-19T23:57:12.092Z,1.54
